< < Back
Terminal Aerodrome Forecast


Current Version              Previous Versions:   1  2  3  4  5  6  7  8  9  

Terminal Aerodrome Forecast

453
FTUS42 KGSP 012000 AAA
TAFCLT
TAF AMD
KCLT 012058Z 0121/0218 19003KT P6SM SCT060
     FM020500 19002KT P6SM BKN070
     FM021400 23004KT P6SM SCT050=



Latest METAR

590
SAUS70 KWBC 021000 RRB
MTRCLT
METAR KCLT 020952Z 00000KT 8SM FEW095 17/16 A3008 RMK AO2 SLP177
T01720156 $


USA.gov is the U.S. government's official web portal to all federal, state and local government web resources and services.